LTAV

Sivrihisar Airport

Sivrihisar, Turkey
TAF LTAV 261040Z 2612/2621 VRB02KT 9999 SCT040 SCT200 BECMG 2616/2618 CAVOK
Issued Valid From Valid To
Apr-26 @ 10:40 UTC
(3 hours ago)
Apr-26 @ 12:00 UTC
(2 hours ago)
Apr-26 @ 21:00 UTC
(in 7 hours)
Apr-26 @ 12:00 to Apr-26 @ 16:00
TAF LTAV 261040Z 2612/2621 VRB02KT 9999 SCT040 SCT200
Wind Visibility Clouds
Variable at 2 knots 10,000+ meters
  • Scattered at 4,000' AGL
  • Scattered at 20,000' AGL
Becoming Apr-26 @ 16:00 to Apr-26 @ 21:00
BECMG 2616/2618 CAVOK
Wind Visibility Clouds Conditions
Variable at 2 knots 10,000+ meters
  • No significant clouds
TAF LTAV 261040Z 2612/2621 VRB02KT 9999 SCT040 SCT200 BECMG 2616/2618 CAVOK
Issued Apr-26 @ 10:40 UTC
(3 hours ago)
Valid From Apr-26 @ 12:00 UTC
(2 hours ago)
Valid To Apr-26 @ 21:00 UTC
(in 7 hours)
Apr-26 @ 12:00 - Apr-26 @ 16:00
Wind Visibility
Variable at 2 knots 10,000+ meters
Clouds
  • Scattered at 4,000' AGL
  • Scattered at 20,000' AGL
Becoming Apr-26 @ 16:00 - Apr-26 @ 21:00
Wind Visibility
Variable at 2 knots 10,000+ meters
Clouds
  • No significant clouds
Conditions